Time;durP1;ratioP1;P1;durP2;ratioP2;P2;SDS_P1;SDS_P2;PMS_P1;PMS_P2;Temp;Humidity;BMP_temperature;BMP_pressure;BME280_temperature;BME280_humidity;BME280_pressure;Samples;Min_cycle;Max_cycle;Signal;HPM_P1;HPM_P2
2022/03/20 00:01:57;;;;;;;;;;;;;;;14.40;41.97;102637.66;4395870;32;20009;-70
2022/03/20 00:04:48;;;;;;;;;;;;;;;14.31;42.18;102637.34;4368209;32;19954;-70
2022/03/20 00:07:33;;;;;;;;;;;;;;;14.31;41.91;102640.19;4370321;32;20399;-70
2022/03/20 00:10:18;;;;;;;;;;;;;;;14.28;42.07;102616.34;4368960;32;20428;-70
2022/03/20 00:12:44;;;;;;;;;;;;;;;14.23;42.10;102630.13;4367959;32;19978;-70
2022/03/20 00:15:30;;;;;;;;;;;;;;;14.31;41.60;102624.00;4356764;32;20257;-70
2022/03/20 00:17:59;;;;;;;;;;;;;;;14.34;41.53;102619.50;4363455;32;20010;-70
2022/03/20 00:20:49;;;;;;;;;;;;;;;14.31;41.81;102612.69;4365981;32;19958;-70
2022/03/20 00:23:29;;;;;;;;;;;;;;;14.19;42.21;102609.50;4417874;32;19969;-70
2022/03/20 00:26:17;;;;;;;;;;;;;;;14.20;41.99;102600.59;4421974;32;19965;-70
2022/03/20 00:28:44;;;;;;;;;;;;;;;14.20;42.01;102599.81;4423921;32;19946;-70
2022/03/20 00:31:32;;;;;;;;;;;;;;;14.16;42.04;102590.53;4420878;32;20052;-70
2022/03/20 00:34:00;;;;;;;;;;;;;;;14.15;42.02;102588.94;4424058;32;20033;-70
2022/03/20 00:36:47;;;;;;;;;;;;;;;14.09;41.91;102578.03;4424537;32;19945;-70
2022/03/20 00:39:17;;;;;;;;;;;;;;;14.09;41.99;102578.03;4424326;32;19993;-70
2022/03/20 00:41:46;;;;;;;;;;;;;;;14.07;41.85;102576.84;4422750;32;19949;-70
2022/03/20 00:44:13;;;;;;;;;;;;;;;14.00;42.09;102576.94;4424068;32;20415;-70
2022/03/20 00:46:58;;;;;;;;;;;;;;;14.00;42.18;102579.75;4425468;32;19989;-70
2022/03/20 00:49:55;;;;;;;;;;;;;;;13.83;42.24;102569.37;4419511;32;20382;-70
2022/03/20 00:52:42;;;;;;;;;;;;;;;13.88;42.44;102564.09;4423588;32;19964;-70
2022/03/20 00:55:08;;;;;;;;;;;;;;;13.79;42.45;102563.78;4422463;32;20382;-70
2022/03/20 00:57:35;;;;;;;;;;;;;;;13.71;42.54;102555.72;4425402;32;20064;-70
2022/03/20 01:00:07;;;;;;;;;;;;;;;13.60;42.83;102557.84;4424343;32;19969;-70
2022/03/20 01:02:56;;;;;;;;;;;;;;;13.58;42.82;102543.31;4415688;32;20383;-70
2022/03/20 01:05:24;;;;;;;;;;;;;;;13.63;43.20;102551.38;4423182;32;20390;-70
2022/03/20 01:07:50;;;;;;;;;;;;;;;13.58;43.08;102546.13;4423621;32;20277;-70
2022/03/20 01:10:54;;;;;;;;;;;;;;;13.57;42.94;102538.87;4420924;32;19961;-70
2022/03/20 01:13:23;;;;;;;;;;;;;;;13.59;43.09;102536.44;4420987;32;20587;-70
2022/03/20 01:16:10;;;;;;;;;;;;;;;13.53;43.21;102527.59;4409470;32;19968;-70
2022/03/20 01:18:56;;;;;;;;;;;;;;;13.48;43.05;102522.38;4418137;32;19985;-70
2022/03/20 01:21:43;;;;;;;;;;;;;;;13.47;43.26;102511.50;4422720;32;20571;-70
2022/03/20 01:24:31;;;;;;;;;;;;;;;13.41;43.18;102508.28;4423982;32;19942;-70
2022/03/20 01:27:07;;;;;;;;;;;;;;;13.37;43.28;102503.88;4422716;32;20037;-70
2022/03/20 01:29:34;;;;;;;;;;;;;;;13.44;43.05;102501.78;4421477;32;20720;-70
2022/03/20 01:32:00;;;;;;;;;;;;;;;13.33;43.47;102506.75;4422289;32;19965;-70
2022/03/20 01:34:27;;;;;;;;;;;;;;;13.43;43.32;102499.38;4419794;32;20402;-70
2022/03/20 01:36:52;;;;;;;;;;;;;;;13.30;43.27;102495.44;4422627;32;19962;-70
2022/03/20 01:39:21;;;;;;;;;;;;;;;13.32;43.21;102499.47;4423279;32;20008;-70
2022/03/20 01:41:47;;;;;;;;;;;;;;;13.13;43.32;102488.69;4422777;32;21120;-70
2022/03/20 01:44:13;;;;;;;;;;;;;;;13.03;43.00;102486.75;4423685;32;20361;-70
2022/03/20 01:46:39;;;;;;;;;;;;;;;12.91;43.06;102481.53;4423675;32;20447;-70
2022/03/20 01:49:04;;;;;;;;;;;;;;;12.97;43.31;102467.78;4423325;32;20422;-70
2022/03/20 01:54:16;;;;;;;;;;;;;;;12.80;43.57;102458.22;4423517;32;19964;-70
2022/03/20 01:56:46;;;;;;;;;;;;;;;12.74;43.83;102451.38;4415735;32;19989;-70
2022/03/20 01:59:20;;;;;;;;;;;;;;;12.78;43.69;102454.16;4422196;32;20011;-70
2022/03/20 02:02:06;;;;;;;;;;;;;;;12.82;43.54;102452.94;4423736;32;19986;-70
2022/03/20 02:04:35;;;;;;;;;;;;;;;12.65;43.51;102439.72;4423594;32;20016;-70
2022/03/20 02:07:22;;;;;;;;;;;;;;;12.62;43.89;102440.56;4425149;32;19967;-70
2022/03/20 02:09:54;;;;;;;;;;;;;;;12.64;43.85;102438.09;4422342;32;19949;-70
2022/03/20 02:12:20;;;;;;;;;;;;;;;12.64;44.08;102434.50;4421258;32;20270;-70
2022/03/20 02:14:46;;;;;;;;;;;;;;;12.60;44.09;102428.84;4407767;32;20020;-70
2022/03/20 02:17:12;;;;;;;;;;;;;;;12.66;43.96;102423.56;4425709;32;19954;-70
2022/03/20 02:19:52;;;;;;;;;;;;;;;12.66;44.10;102421.56;4420886;32;19993;-70
2022/03/20 02:22:44;;;;;;;;;;;;;;;12.64;44.08;102426.81;4395862;32;19951;-70
2022/03/20 02:25:14;;;;;;;;;;;;;;;12.59;43.82;102407.47;4396982;32;19957;-70
2022/03/20 02:27:40;;;;;;;;;;;;;;;12.54;44.21;102404.25;4395258;32;20005;-70
2022/03/20 02:30:12;;;;;;;;;;;;;;;12.60;44.32;102400.59;4395552;32;19981;-70
2022/03/20 02:32:41;;;;;;;;;;;;;;;12.52;44.22;102407.50;4395273;32;19958;-70
2022/03/20 02:35:17;;;;;;;;;;;;;;;12.53;44.14;102399.84;4394434;32;19970;-70
2022/03/20 02:38:01;;;;;;;;;;;;;;;12.53;44.42;102395.00;4396175;32;20020;-70
2022/03/20 02:40:30;;;;;;;;;;;;;;;12.66;44.25;102400.97;4395853;32;19955;-70
2022/03/20 02:43:14;;;;;;;;;;;;;;;12.49;44.75;102399.84;4392708;32;19977;-70
2022/03/20 02:45:59;;;;;;;;;;;;;;;12.53;44.92;102392.19;4395890;32;19961;-70
2022/03/20 02:49:06;;;;;;;;;;;;;;;12.64;44.71;102392.13;4391950;32;19965;-70
2022/03/20 02:51:50;;;;;;;;;;;;;;;12.54;45.35;102390.13;4395800;32;20043;-70
2022/03/20 02:54:52;;;;;;;;;;;;;;;12.54;45.38;102378.84;4344740;33;19971;-70
2022/03/20 02:57:47;;;;;;;;;;;;;;;12.61;45.49;102384.47;4326559;33;20310;-69
2022/03/20 03:00:32;;;;;;;;;;;;;;;12.64;45.68;102369.53;4327224;33;19961;-70
2022/03/20 03:03:17;;;;;;;;;;;;;;;12.57;45.98;102361.87;4327588;33;19957;-69
2022/03/20 03:06:12;;;;;;;;;;;;;;;12.78;45.51;102353.28;4332391;33;20025;-69
2022/03/20 03:12:05;;;;;;;;;;;;;;;12.76;46.12;102352.88;4373728;32;20245;-69
2022/03/20 03:17:27;;;;;;;;;;;;;;;12.85;45.70;102347.56;4373735;32;20030;-70
2022/03/20 03:19:54;;;;;;;;;;;;;;;12.93;45.59;102345.47;4357687;32;20018;-70
2022/03/20 03:22:36;;;;;;;;;;;;;;;12.95;45.45;102351.53;4374536;32;20002;-70
2022/03/20 03:25:03;;;;;;;;;;;;;;;12.85;45.42;102349.56;4374106;32;19998;-70
2022/03/20 03:27:29;;;;;;;;;;;;;;;12.77;45.56;102340.38;4360662;32;20073;-70
2022/03/20 03:29:55;;;;;;;;;;;;;;;12.85;45.29;102338.25;4417545;32;20433;-70
2022/03/20 03:32:21;;;;;;;;;;;;;;;12.78;45.33;102339.16;4424954;32;19972;-70
2022/03/20 03:37:55;;;;;;;;;;;;;;;12.77;45.30;102329.06;4421644;32;20452;-70
2022/03/20 03:40:21;;;;;;;;;;;;;;;12.71;45.42;102341.22;4425875;32;20305;-70
2022/03/20 03:42:48;;;;;;;;;;;;;;;12.67;45.29;102329.94;4424649;32;21545;-70
2022/03/20 03:45:53;;;;;;;;;;;;;;;12.60;45.71;102330.00;4399840;32;19972;-70
2022/03/20 03:48:39;;;;;;;;;;;;;;;12.57;45.75;102321.53;4423627;32;20004;-70
2022/03/20 03:51:05;;;;;;;;;;;;;;;12.48;45.44;102322.00;4422230;32;19992;-70
2022/03/20 03:53:31;;;;;;;;;;;;;;;12.53;45.41;102327.22;4422389;32;19997;-70
2022/03/20 03:55:57;;;;;;;;;;;;;;;12.47;45.42;102328.06;4425489;32;19957;-70
2022/03/20 03:58:43;;;;;;;;;;;;;;;12.51;45.43;102326.81;4423789;32;20019;-70
2022/03/20 04:01:43;;;;;;;;;;;;;;;12.44;45.41;102326.88;4413556;32;19968;-70
2022/03/20 04:04:11;;;;;;;;;;;;;;;12.30;45.68;102331.81;4423574;32;19961;-70
2022/03/20 04:06:38;;;;;;;;;;;;;;;12.20;45.61;102321.37;4424571;32;20005;-70
2022/03/20 04:09:06;;;;;;;;;;;;;;;12.34;45.64;102316.47;4423824;32;19994;-70
2022/03/20 04:11:57;;;;;;;;;;;;;;;12.29;45.77;102319.72;4377508;32;19983;-70
2022/03/20 04:14:48;;;;;;;;;;;;;;;12.24;45.91;102305.22;4361816;32;20343;-70
2022/03/20 04:17:33;;;;;;;;;;;;;;;12.23;46.12;102309.25;4414370;32;20324;-70
2022/03/20 04:19:59;;;;;;;;;;;;;;;12.31;45.96;102316.47;4423669;32;19972;-70
2022/03/20 04:26:02;;;;;;;;;;;;;;;12.30;45.74;102312.06;4370080;32;19980;-70
2022/03/20 04:28:51;;;;;;;;;;;;;;;12.18;45.96;102316.12;4366336;32;19990;-70
2022/03/20 04:31:54;;;;;;;;;;;;;;;12.18;45.57;102309.69;4303927;33;20033;-70
2022/03/20 04:34:40;;;;;;;;;;;;;;;12.01;46.01;102305.75;4304885;33;20004;-70
2022/03/20 04:37:27;;;;;;;;;;;;;;;12.04;45.85;102304.94;4303195;33;20585;-70
2022/03/20 04:40:11;;;;;;;;;;;;;;;12.03;45.67;102308.97;4304991;33;20028;-70
2022/03/20 04:43:08;;;;;;;;;;;;;;;11.89;45.47;102301.37;4276370;33;19953;-70
2022/03/20 04:45:51;;;;;;;;;;;;;;;12.07;45.58;102292.81;4276252;33;20382;-70
2022/03/20 04:58:35;;;;;;;;;;;;;;;11.79;45.55;102290.94;4256612;33;20887;-70
2022/03/20 05:01:28;;;;;;;;;;;;;;;11.79;45.46;102298.59;4299948;33;20010;-70
2022/03/20 05:04:13;;;;;;;;;;;;;;;11.81;45.38;102288.50;4303748;33;20046;-70
2022/03/20 05:06:39;;;;;;;;;;;;;;;11.79;45.35;102290.16;4304183;33;20018;-70
2022/03/20 05:14:57;;;;;;;;;;;;;;;11.50;45.22;102275.31;4397123;32;19953;-70
2022/03/20 05:17:42;;;;;;;;;;;;;;;11.52;45.25;102280.53;4403025;32;19965;-70
2022/03/20 05:20:28;;;;;;;;;;;;;;;11.54;44.96;102266.84;4402023;32;19958;-70
2022/03/20 05:22:54;;;;;;;;;;;;;;;11.42;45.07;102275.75;4409618;32;20073;-70
2022/03/20 05:25:25;;;;;;;;;;;;;;;11.42;45.53;102268.06;4407351;32;20375;-70
2022/03/20 05:28:23;;;;;;;;;;;;;;;11.44;45.60;102267.66;4369040;32;20036;-70
2022/03/20 05:31:08;;;;;;;;;;;;;;;11.49;45.47;102261.63;4371342;32;20013;-70
2022/03/20 05:33:54;;;;;;;;;;;;;;;11.37;45.64;102274.16;4368957;32;19958;-70
2022/03/20 05:36:29;;;;;;;;;;;;;;;11.39;45.64;102277.34;4370232;32;19974;-70
2022/03/20 05:39:29;;;;;;;;;;;;;;;11.39;45.57;102271.72;4366178;32;19961;-70
2022/03/20 05:42:20;;;;;;;;;;;;;;;11.38;45.62;102274.94;4367167;32;19998;-70
2022/03/20 05:44:53;;;;;;;;;;;;;;;11.28;45.65;102272.97;4368934;32;20123;-70
2022/03/20 05:47:40;;;;;;;;;;;;;;;11.33;45.67;102272.56;4379673;32;19976;-70
2022/03/20 05:50:26;;;;;;;;;;;;;;;11.35;45.73;102273.75;4354336;32;20010;-70
2022/03/20 05:53:14;;;;;;;;;;;;;;;11.39;45.66;102277.34;4348982;32;19997;-70
2022/03/20 05:58:28;;;;;;;;;;;;;;;11.41;45.37;102279.75;4358522;32;20024;-70
2022/03/20 06:00:53;;;;;;;;;;;;;;;11.36;45.61;102288.66;4396406;32;19959;-70
2022/03/20 06:03:25;;;;;;;;;;;;;;;11.31;45.72;102284.22;4394541;32;19977;-70
2022/03/20 06:05:51;;;;;;;;;;;;;;;11.18;46.13;102288.69;4393948;32;20337;-70
2022/03/20 06:08:21;;;;;;;;;;;;;;;11.09;45.64;102296.75;4396996;32;19957;-70
2022/03/20 06:10:56;;;;;;;;;;;;;;;11.09;45.44;102291.13;4391989;32;20085;-70
2022/03/20 06:13:45;;;;;;;;;;;;;;;10.93;45.58;102298.37;4324359;33;20382;-70
2022/03/20 06:16:29;;;;;;;;;;;;;;;10.98;45.61;102298.78;4326837;33;19958;-70
2022/03/20 06:19:15;;;;;;;;;;;;;;;11.18;45.15;102302.78;4325867;33;19969;-70
2022/03/20 06:21:46;;;;;;;;;;;;;;;11.23;45.10;102310.03;4327014;33;19986;-70
2022/03/20 06:24:28;;;;;;;;;;;;;;;11.24;45.03;102312.44;4324799;33;19955;-70
2022/03/20 06:26:56;;;;;;;;;;;;;;;11.45;45.08;102303.12;4323988;33;19968;-70
2022/03/20 06:29:48;;;;;;;;;;;;;;;11.60;44.82;102307.53;4327006;33;20009;-70
2022/03/20 06:32:15;;;;;;;;;;;;;;;11.75;44.22;102309.91;4380462;32;20022;-70
2022/03/20 06:34:42;;;;;;;;;;;;;;;11.65;44.34;102307.09;4394879;32;19958;-70
2022/03/20 06:37:08;;;;;;;;;;;;;;;11.62;44.22;102314.37;4394592;32;20055;-70
2022/03/20 06:39:34;;;;;;;;;;;;;;;11.49;44.79;102316.00;4396133;32;19951;-70
2022/03/20 06:42:00;;;;;;;;;;;;;;;11.45;44.59;102309.56;4427873;32;19993;-70
2022/03/20 06:44:26;;;;;;;;;;;;;;;11.41;44.89;102305.94;4427431;32;19964;-70
2022/03/20 06:47:12;;;;;;;;;;;;;;;11.52;44.76;102306.72;4424819;32;19989;-70
2022/03/20 06:49:37;;;;;;;;;;;;;;;11.70;44.66;102309.53;4426095;32;20058;-70
2022/03/20 06:52:03;;;;;;;;;;;;;;;11.76;44.41;102319.94;4428013;32;19989;-70
2022/03/20 06:54:29;;;;;;;;;;;;;;;11.76;44.42;102307.87;4426005;32;20654;-70
2022/03/20 06:56:55;;;;;;;;;;;;;;;11.99;44.29;102311.00;4426191;32;19993;-70
2022/03/20 06:59:34;;;;;;;;;;;;;;;12.03;44.31;102314.63;4426054;32;19989;-70
2022/03/20 07:02:02;;;;;;;;;;;;;;;12.08;44.36;102308.53;4423677;32;19969;-70
2022/03/20 07:04:35;;;;;;;;;;;;;;;12.10;44.42;102318.19;4426731;32;20001;-70
2022/03/20 07:07:04;;;;;;;;;;;;;;;12.23;44.29;102301.59;4426178;32;19973;-69
2022/03/20 07:09:55;;;;;;;;;;;;;;;12.28;44.36;102306.81;4424119;32;20620;-69
2022/03/20 07:12:45;;;;;;;;;;;;;;;12.26;44.01;102297.94;4423387;32;20096;-69
2022/03/20 07:15:27;;;;;;;;;;;;;;;12.44;44.18;102298.66;4428581;32;20115;-69
2022/03/20 07:17:55;;;;;;;;;;;;;;;12.57;43.75;102287.63;4427195;32;20386;-69
2022/03/20 07:20:21;;;;;;;;;;;;;;;12.68;43.81;102286.38;4413935;32;20286;-69
2022/03/20 07:22:50;;;;;;;;;;;;;;;12.74;43.22;102281.88;4421566;32;21069;-69
2022/03/20 07:30:47;;;;;;;;;;;;;;;12.96;43.83;102269.16;4423792;32;20005;-69
2022/03/20 07:33:14;;;;;;;;;;;;;;;13.13;43.72;102264.59;4422033;32;20441;-69
2022/03/20 07:35:42;;;;;;;;;;;;;;;13.24;43.50;102263.25;4426567;32;19971;-69
2022/03/20 07:38:08;;;;;;;;;;;;;;;13.40;43.50;102260.63;4426457;32;20378;-69
2022/03/20 07:40:34;;;;;;;;;;;;;;;13.64;43.11;102261.56;4423445;32;19968;-69
2022/03/20 07:43:00;;;;;;;;;;;;;;;13.71;42.63;102258.62;4425867;32;20347;-69
2022/03/20 07:45:26;;;;;;;;;;;;;;;13.76;43.05;102253.34;4414909;32;19941;-69
2022/03/20 07:47:52;;;;;;;;;;;;;;;13.91;42.45;102262.44;4426382;32;20253;-69
2022/03/20 07:50:17;;;;;;;;;;;;;;;14.05;42.47;102257.37;4422601;32;20015;-69
2022/03/20 07:52:45;;;;;;;;;;;;;;;14.28;42.46;102248.16;4425904;32;20388;-69
2022/03/20 07:55:11;;;;;;;;;;;;;;;14.31;42.92;102235.97;4424113;32;20347;-69
2022/03/20 07:57:40;;;;;;;;;;;;;;;14.39;42.72;102239.50;4425079;32;19954;-69
2022/03/20 08:00:06;;;;;;;;;;;;;;;14.67;43.35;102239.81;4424417;32;20022;-69
2022/03/20 08:02:31;;;;;;;;;;;;;;;14.87;43.54;102231.38;4424195;32;19950;-69
2022/03/20 08:04:57;;;;;;;;;;;;;;;14.97;43.64;102234.03;4424612;32;20009;-69
2022/03/20 08:07:24;;;;;;;;;;;;;;;15.13;43.39;102236.97;4424445;32;20000;-69
2022/03/20 08:09:50;;;;;;;;;;;;;;;15.35;43.13;102228.84;4422429;32;20008;-69
2022/03/20 08:12:15;;;;;;;;;;;;;;;15.36;42.71;102222.75;4423412;32;20412;-69
2022/03/20 08:14:41;;;;;;;;;;;;;;;15.57;42.26;102225.19;4425950;32;20369;-69
2022/03/20 08:17:08;;;;;;;;;;;;;;;15.91;41.85;102227.69;4425938;32;20287;-69
2022/03/20 08:19:34;;;;;;;;;;;;;;;16.13;41.91;102234.47;4421686;32;19993;-69
2022/03/20 08:21:59;;;;;;;;;;;;;;;16.25;41.60;102233.78;4422851;32;19953;-70
2022/03/20 08:24:25;;;;;;;;;;;;;;;16.44;40.62;102235.00;4424472;32;20412;-69
2022/03/20 08:26:51;;;;;;;;;;;;;;;16.54;40.77;102234.72;4423088;32;20045;-69
2022/03/20 08:29:18;;;;;;;;;;;;;;;16.70;40.43;102229.03;4422712;32;20020;-69
2022/03/20 08:31:47;;;;;;;;;;;;;;;17.08;40.11;102227.22;4422153;32;20008;-69
2022/03/20 08:34:14;;;;;;;;;;;;;;;17.66;39.04;102225.97;4422161;32;20044;-70
2022/03/20 08:36:42;;;;;;;;;;;;;;;18.00;37.69;102225.34;4423788;32;19941;-70
2022/03/20 08:39:08;;;;;;;;;;;;;;;18.08;37.35;102226.72;4422522;32;20001;-70
2022/03/20 08:41:35;;;;;;;;;;;;;;;18.59;36.46;102219.75;4422556;32;20375;-70
2022/03/20 08:44:02;;;;;;;;;;;;;;;18.46;37.12;102215.34;4424488;32;20370;-70
2022/03/20 08:46:27;;;;;;;;;;;;;;;18.76;36.64;102206.16;4424660;32;20907;-70
2022/03/20 08:48:53;;;;;;;;;;;;;;;19.02;36.00;102207.69;4422189;32;20050;-70
2022/03/20 08:51:18;;;;;;;;;;;;;;;19.45;35.94;102217.13;4422407;32;20233;-70
2022/03/20 08:53:43;;;;;;;;;;;;;;;19.48;35.36;102212.53;4422094;32;20398;-70
2022/03/20 08:56:09;;;;;;;;;;;;;;;19.76;34.66;102206.53;4424171;32;20008;-70
2022/03/20 08:58:35;;;;;;;;;;;;;;;20.10;34.17;102210.53;4423646;32;20308;-70
2022/03/20 09:01:01;;;;;;;;;;;;;;;20.00;34.66;102206.03;4422618;32;20040;-70
2022/03/20 09:03:27;;;;;;;;;;;;;;;20.45;33.88;102214.81;4424741;32;19997;-70
2022/03/20 09:05:52;;;;;;;;;;;;;;;20.50;33.22;102215.00;4423905;32;19992;-70
2022/03/20 09:08:18;;;;;;;;;;;;;;;20.50;33.22;102220.75;4426625;32;20227;-70
2022/03/20 09:10:43;;;;;;;;;;;;;;;20.83;32.41;102218.12;4421332;32;19997;-71
2022/03/20 09:13:09;;;;;;;;;;;;;;;21.05;32.46;102218.81;4421082;32;20304;-70
2022/03/20 09:15:34;;;;;;;;;;;;;;;21.10;32.68;102215.28;4424571;32;19957;-70
2022/03/20 09:20:45;;;;;;;;;;;;;;;20.67;32.67;102204.88;4421020;32;20298;-70
2022/03/20 09:23:12;;;;;;;;;;;;;;;20.61;33.17;102200.25;4424657;32;19958;-70
2022/03/20 09:25:38;;;;;;;;;;;;;;;20.70;32.60;102189.63;4423441;32;20331;-70
2022/03/20 09:28:22;;;;;;;;;;;;;;;20.93;32.60;102199.69;4424560;32;20297;-70
2022/03/20 09:30:48;;;;;;;;;;;;;;;21.02;32.14;102194.78;4425116;32;19961;-70
2022/03/20 09:33:14;;;;;;;;;;;;;;;21.59;31.64;102193.78;4426159;32;20009;-70
2022/03/20 09:35:40;;;;;;;;;;;;;;;22.06;30.87;102184.59;4425935;32;19996;-70
2022/03/20 09:38:07;;;;;;;;;;;;;;;21.88;30.99;102181.00;4424355;32;20033;-70
2022/03/20 09:40:33;;;;;;;;;;;;;;;22.36;30.09;102180.62;4424980;32;20061;-70
2022/03/20 09:42:59;;;;;;;;;;;;;;;22.95;29.03;102176.00;4424337;32;20008;-70
2022/03/20 09:45:26;;;;;;;;;;;;;;;23.14;28.19;102166.72;4422857;32;20033;-70
2022/03/20 09:47:53;;;;;;;;;;;;;;;23.42;27.98;102162.34;4425443;32;19946;-70
2022/03/20 09:50:19;;;;;;;;;;;;;;;23.61;27.86;102165.81;4421087;32;20003;-70
2022/03/20 09:52:44;;;;;;;;;;;;;;;24.35;27.11;102159.50;4419684;32;19961;-70
2022/03/20 09:55:11;;;;;;;;;;;;;;;24.58;26.10;102161.38;4420613;32;20012;-70
2022/03/20 09:57:36;;;;;;;;;;;;;;;24.48;25.85;102153.41;4422788;32;19954;-70
2022/03/20 10:00:05;;;;;;;;;;;;;;;24.64;25.57;102153.66;4420528;32;19953;-70
2022/03/20 10:02:31;;;;;;;;;;;;;;;24.63;25.87;102143.41;4419614;32;19997;-70
2022/03/20 10:04:58;;;;;;;;;;;;;;;24.47;25.63;102148.94;4423718;32;20339;-70
2022/03/20 10:07:25;;;;;;;;;;;;;;;23.22;26.27;102149.91;4421825;32;19993;-70
2022/03/20 10:10:11;;;;;;;;;;;;;;;22.92;26.71;102145.41;4422361;32;20011;-70
2022/03/20 10:12:37;;;;;;;;;;;;;;;22.47;26.60;102142.81;4421205;32;20008;-70
2022/03/20 10:15:05;;;;;;;;;;;;;;;22.33;26.83;102143.53;4426745;32;19995;-70
2022/03/20 10:17:31;;;;;;;;;;;;;;;21.69;27.46;102134.38;4425578;32;19977;-70
2022/03/20 10:20:11;;;;;;;;;;;;;;;21.46;28.12;102132.22;4425220;32;20695;-70
2022/03/20 10:22:37;;;;;;;;;;;;;;;21.03;27.99;102124.81;4421927;32;20058;-70
2022/03/20 10:25:03;;;;;;;;;;;;;;;21.11;27.66;102117.47;4427181;32;19977;-70
2022/03/20 10:27:29;;;;;;;;;;;;;;;21.14;28.36;102121.47;4425420;32;19953;-70
2022/03/20 10:29:55;;;;;;;;;;;;;;;20.91;28.29;102114.28;4424242;32;19984;-71
2022/03/20 10:32:22;;;;;;;;;;;;;;;21.09;27.96;102110.66;4423988;32;20044;-70
2022/03/20 10:34:56;;;;;;;;;;;;;;;21.27;27.43;102108.53;4426233;32;20271;-70
2022/03/20 10:37:41;;;;;;;;;;;;;;;21.93;26.04;102108.69;4425881;32;20000;-70
2022/03/20 10:40:08;;;;;;;;;;;;;;;22.94;25.01;102105.47;4414208;32;20442;-70
2022/03/20 10:42:33;;;;;;;;;;;;;;;23.39;24.41;102110.81;4422518;32;20012;-70
2022/03/20 10:45:03;;;;;;;;;;;;;;;23.29;24.86;102110.12;4425075;32;20339;-70
2022/03/20 10:47:29;;;;;;;;;;;;;;;24.06;23.84;102107.81;4427727;32;19953;-70
2022/03/20 10:50:04;;;;;;;;;;;;;;;24.36;22.91;102108.50;4424505;32;20075;-70
2022/03/20 10:52:30;;;;;;;;;;;;;;;25.17;21.97;102104.28;4422974;32;19968;-70
2022/03/20 10:54:56;;;;;;;;;;;;;;;25.16;21.45;102099.84;4422264;32;19996;-70
2022/03/20 10:57:31;;;;;;;;;;;;;;;25.83;20.48;102104.16;4421974;32;19954;-70
2022/03/20 10:59:57;;;;;;;;;;;;;;;26.17;20.33;102106.00;4423243;32;19989;-70
2022/03/20 11:02:24;;;;;;;;;;;;;;;26.18;20.08;102093.16;4425541;32;20027;-71
2022/03/20 11:04:49;;;;;;;;;;;;;;;26.17;19.78;102089.47;4425999;32;19975;-71
2022/03/20 11:07:19;;;;;;;;;;;;;;;25.68;20.10;102086.97;4425943;32;19953;-71
2022/03/20 11:09:46;;;;;;;;;;;;;;;25.50;20.02;102083.69;4424742;32;21027;-71
2022/03/20 11:12:15;;;;;;;;;;;;;;;25.29;20.05;102083.75;4426164;32;19961;-71
2022/03/20 11:14:42;;;;;;;;;;;;;;;25.24;20.00;102084.47;4424814;32;20323;-71
2022/03/20 11:17:08;;;;;;;;;;;;;;;24.29;20.85;102089.56;4424722;32;19996;-71
2022/03/20 11:19:36;;;;;;;;;;;;;;;23.50;21.40;102082.25;4422745;32;19953;-70
2022/03/20 11:22:04;;;;;;;;;;;;;;;23.17;22.18;102073.03;4424429;32;19958;-70
2022/03/20 11:24:30;;;;;;;;;;;;;;;23.60;21.91;102082.97;4421894;32;19984;-71
2022/03/20 11:26:58;;;;;;;;;;;;;;;23.46;22.12;102075.94;4423320;32;20028;-71
2022/03/20 11:29:24;;;;;;;;;;;;;;;23.25;22.59;102072.19;4422749;32;20083;-71
2022/03/20 11:31:50;;;;;;;;;;;;;;;23.31;22.42;102070.19;4422183;32;20327;-70
2022/03/20 11:34:17;;;;;;;;;;;;;;;23.51;22.09;102060.87;4424480;32;20023;-71
2022/03/20 11:37:02;;;;;;;;;;;;;;;23.79;21.47;102055.56;4424039;32;19945;-71
2022/03/20 11:39:28;;;;;;;;;;;;;;;23.71;21.06;102057.28;4424750;32;19949;-71
2022/03/20 11:42:13;;;;;;;;;;;;;;;23.43;20.85;102042.44;4423007;32;20015;-71
2022/03/20 11:44:50;;;;;;;;;;;;;;;23.84;20.41;102052.78;4425131;32;20000;-71
2022/03/20 11:50:15;;;;;;;;;;;;;;;25.60;18.58;102031.09;3950768;32;15854597;-71
2022/03/20 11:52:44;;;;;;;;;;;;;;;25.60;18.58;102031.09;4427368;32;19993;-71
2022/03/20 11:55:30;;;;;;;;;;;;;;;25.66;18.62;102031.94;4425199;32;20079;-71
2022/03/20 11:57:58;;;;;;;;;;;;;;;25.57;18.38;102029.25;4426168;32;19985;-71
2022/03/20 12:00:25;;;;;;;;;;;;;;;25.41;18.65;102020.44;4428130;32;19992;-71
2022/03/20 12:02:53;;;;;;;;;;;;;;;25.30;18.50;102013.28;4427015;32;20238;-72
2022/03/20 12:05:35;;;;;;;;;;;;;;;25.92;17.94;102011.66;4427778;32;20440;-71
2022/03/20 12:13:19;;;;;;;;;;;;;;;26.34;17.61;102015.31;3954582;32;15723618;-71
2022/03/20 12:15:45;;;;;;;;;;;;;;;26.34;17.61;102015.31;4435469;32;20341;-71
2022/03/20 12:18:11;;;;;;;;;;;;;;;25.46;18.49;102014.72;4434484;32;19973;-71
2022/03/20 12:20:55;;;;;;;;;;;;;;;25.65;18.50;102006.50;4433859;32;20978;-71
2022/03/20 12:23:35;;;;;;;;;;;;;;;25.47;18.79;102006.87;4434025;32;19977;-72
2022/03/20 12:26:20;;;;;;;;;;;;;;;25.80;18.59;102004.25;4432305;32;20023;-71
2022/03/20 12:28:46;;;;;;;;;;;;;;;26.66;17.92;101999.44;4433615;32;20005;-71
2022/03/20 12:31:11;;;;;;;;;;;;;;;26.98;17.63;101985.59;4432340;32;20011;-71
2022/03/20 12:33:37;;;;;;;;;;;;;;;26.92;17.47;101991.38;4432926;32;20432;-71
2022/03/20 12:36:02;;;;;;;;;;;;;;;27.43;17.19;101995.87;4433061;32;19976;-71
2022/03/20 12:38:34;;;;;;;;;;;;;;;27.57;17.12;101991.12;4433765;32;19990;-71
2022/03/20 12:41:15;;;;;;;;;;;;;;;27.07;17.50;101991.91;4431479;32;19968;-71
2022/03/20 12:43:43;;;;;;;;;;;;;;;26.22;18.29;101990.59;4432887;32;20005;-70
2022/03/20 12:46:09;;;;;;;;;;;;;;;25.92;18.54;101980.69;4431351;32;20260;-71
2022/03/20 12:48:36;;;;;;;;;;;;;;;25.38;19.05;101981.91;4432732;32;20243;-71
2022/03/20 12:51:06;;;;;;;;;;;;;;;24.43;20.01;101970.72;4432515;32;20312;-71
2022/03/20 12:53:48;;;;;;;;;;;;;;;24.84;19.46;101982.97;4434478;32;20342;-70
2022/03/20 12:56:28;;;;;;;;;;;;;;;25.16;19.22;101962.31;4431880;32;20343;-71
2022/03/20 12:58:54;;;;;;;;;;;;;;;25.50;18.98;101965.50;4432713;32;19990;-71
2022/03/20 13:01:20;;;;;;;;;;;;;;;25.68;18.99;101962.22;4434112;32;20447;-70
2022/03/20 13:03:47;;;;;;;;;;;;;;;25.38;19.14;101962.53;4431374;32;20009;-70
2022/03/20 13:06:13;;;;;;;;;;;;;;;25.28;19.34;101957.47;4437049;32;19992;-70
2022/03/20 13:08:39;;;;;;;;;;;;;;;24.93;19.45;101949.03;4434858;32;20245;-71
2022/03/20 13:13:40;;;;;;;;;;;;;;;26.35;18.19;101935.28;3954243;32;15722526;-72
2022/03/20 13:16:14;;;;;;;;;;;;;;;26.35;18.19;101935.28;4434437;32;20006;-72
2022/03/20 13:18:39;;;;;;;;;;;;;;;26.76;17.67;101931.47;4434450;32;20013;-72
2022/03/20 13:21:06;;;;;;;;;;;;;;;27.73;16.79;101923.78;4435404;32;19997;-72
2022/03/20 13:23:32;;;;;;;;;;;;;;;27.50;16.73;101923.06;4436953;32;19953;-72
2022/03/20 13:25:58;;;;;;;;;;;;;;;27.48;16.70;101925.66;4432592;32;19983;-72
2022/03/20 13:31:02;;;;;;;;;;;;;;;27.86;16.28;101927.72;3952557;32;15723570;-72
2022/03/20 13:33:33;;;;;;;;;;;;;;;27.86;16.28;101927.72;4428648;32;20012;-72
2022/03/20 13:36:00;;;;;;;;;;;;;;;27.13;16.10;101914.63;4431452;32;19976;-72
2022/03/20 13:38:45;;;;;;;;;;;;;;;27.58;15.35;101909.59;4430095;32;20035;-72
2022/03/20 13:41:13;;;;;;;;;;;;;;;28.31;14.67;101908.03;4432686;32;19957;-72
2022/03/20 13:43:39;;;;;;;;;;;;;;;28.53;14.09;101911.59;4431372;32;19989;-71
2022/03/20 13:46:21;;;;;;;;;;;;;;;28.59;14.20;101915.25;4431333;32;20827;-71
2022/03/20 13:48:47;;;;;;;;;;;;;;;29.36;13.96;101907.28;4430807;32;20390;-71
2022/03/20 13:51:14;;;;;;;;;;;;;;;29.27;13.90;101896.81;4426602;32;20004;-71
2022/03/20 13:53:41;;;;;;;;;;;;;;;29.38;13.86;101896.69;4428361;32;19981;-71
2022/03/20 13:56:24;;;;;;;;;;;;;;;30.41;13.41;101887.28;4431712;32;20031;-71
2022/03/20 13:59:11;;;;;;;;;;;;;;;31.62;12.94;101890.22;4432592;32;19961;-72
2022/03/20 14:04:18;;;;;;;;;;;;;;;32.33;11.91;101887.91;3946122;32;15721516;-72